createdAt,value
2023-08-09T00:01:09.498Z,13.60
2023-08-09T00:03:37.249Z,10.93
2023-08-09T00:06:04.758Z,9.60
2023-08-09T00:08:32.153Z,12.63
2023-08-09T00:11:01.639Z,8.43
2023-08-09T00:13:29.180Z,10.40
2023-08-09T00:15:56.773Z,10.18
2023-08-09T00:18:24.328Z,10.65
2023-08-09T00:20:52.012Z,10.93
2023-08-09T00:23:19.558Z,10.90
2023-08-09T00:25:47.095Z,10.57
2023-08-09T00:28:16.147Z,9.98
2023-08-09T00:30:43.890Z,11.20
2023-08-09T00:33:11.578Z,12.75
2023-08-09T00:35:39.503Z,12.57
2023-08-09T00:38:07.613Z,12.23
2023-08-09T00:40:35.622Z,13.25
2023-08-09T00:43:03.362Z,10.82
2023-08-09T00:45:32.601Z,11.98
2023-08-09T00:48:01.233Z,11.45
2023-08-09T00:50:28.850Z,10.00
2023-08-09T00:52:57.771Z,9.90
2023-08-09T00:55:25.517Z,9.73
2023-08-09T00:57:54.222Z,11.93
2023-08-09T01:00:21.994Z,9.80
2023-08-09T01:02:51.342Z,10.25
2023-08-09T01:05:19.208Z,12.48
2023-08-09T01:07:51.625Z,10.27
2023-08-09T01:10:24.859Z,11.15
2023-08-09T01:12:57.430Z,12.07
2023-08-09T01:15:26.348Z,11.15
2023-08-09T01:17:57.023Z,10.30
2023-08-09T01:20:25.654Z,11.38
2023-08-09T01:23:00.727Z,11.40
2023-08-09T01:25:30.637Z,11.65
2023-08-09T01:27:59.517Z,11.73
2023-08-09T01:30:27.079Z,9.90
2023-08-09T01:32:55.564Z,10.50
2023-08-09T01:35:25.823Z,10.73
2023-08-09T01:37:57.954Z,11.95
2023-08-09T01:40:28.368Z,11.65
2023-08-09T01:42:59.075Z,10.77
2023-08-09T01:45:29.780Z,11.52
2023-08-09T01:50:28.828Z,10.65
2023-08-09T01:52:57.395Z,10.60
2023-08-09T01:55:27.668Z,11.85
2023-08-09T02:00:24.206Z,12.52
2023-08-09T02:02:54.656Z,12.45
2023-08-09T02:05:24.428Z,12.77
2023-08-09T02:07:52.963Z,10.57
2023-08-09T02:10:21.804Z,15.07
2023-08-09T02:12:50.855Z,11.70
2023-08-09T02:15:19.775Z,25.23
2023-08-09T02:17:49.687Z,18.42
2023-08-09T02:20:19.241Z,13.40
2023-08-09T02:22:47.415Z,10.85
2023-08-09T02:25:16.094Z,14.80
2023-08-09T02:27:44.636Z,14.10
2023-08-09T02:30:13.583Z,16.20
2023-08-09T02:32:41.682Z,11.93
2023-08-09T02:35:11.783Z,13.52
2023-08-09T02:37:40.361Z,13.20
2023-08-09T02:40:09.778Z,16.40
2023-08-09T02:42:38.376Z,15.35
2023-08-09T02:45:08.863Z,14.23
2023-08-09T02:47:36.917Z,12.60
2023-08-09T02:50:06.284Z,13.82
2023-08-09T02:52:37.011Z,12.75
2023-08-09T02:55:06.062Z,15.55
2023-08-09T02:57:34.320Z,11.85
2023-08-09T03:00:02.526Z,12.98
2023-08-09T03:02:31.304Z,13.93
2023-08-09T03:04:59.386Z,13.03
2023-08-09T03:07:26.967Z,14.82
2023-08-09T03:09:56.079Z,12.80
2023-08-09T03:12:23.730Z,12.55
2023-08-09T03:14:51.298Z,12.65
2023-08-09T03:17:18.926Z,14.75
2023-08-09T03:19:47.041Z,13.00
2023-08-09T03:22:14.586Z,14.82
2023-08-09T03:24:42.280Z,13.40
2023-08-09T03:27:11.306Z,12.25
2023-08-09T03:29:39.212Z,12.25
2023-08-09T03:32:06.991Z,12.35
2023-08-09T03:34:34.522Z,12.02
2023-08-09T03:37:03.476Z,10.73
2023-08-09T03:39:31.727Z,13.57
2023-08-09T03:41:59.351Z,13.35
2023-08-09T03:44:29.003Z,11.18
2023-08-09T03:46:56.535Z,10.75
2023-08-09T03:49:24.855Z,13.27
2023-08-09T03:51:52.474Z,14.25
2023-08-09T03:54:20.567Z,13.98
2023-08-09T03:56:48.160Z,12.77
2023-08-09T03:59:15.685Z,13.40
2023-08-09T04:01:44.972Z,12.93
2023-08-09T04:04:12.603Z,15.38
2023-08-09T04:06:40.185Z,14.63
2023-08-09T04:09:07.733Z,13.90
2023-08-09T04:11:35.866Z,18.52
2023-08-09T04:14:05.044Z,13.05
2023-08-09T04:16:32.747Z,14.75
2023-08-09T04:19:01.838Z,16.63
2023-08-09T04:21:29.862Z,17.52
2023-08-09T04:23:57.400Z,16.40
2023-08-09T04:26:25.046Z,15.25
2023-08-09T04:28:52.546Z,19.13
2023-08-09T04:31:20.175Z,15.63
2023-08-09T04:33:47.686Z,15.95
2023-08-09T04:36:16.783Z,19.42
2023-08-09T04:38:44.479Z,14.98
2023-08-09T04:41:11.984Z,13.52
2023-08-09T04:43:42.818Z,19.23
2023-08-09T04:46:10.859Z,18.67
2023-08-09T04:48:39.080Z,16.85
2023-08-09T04:51:06.602Z,19.15
2023-08-09T04:53:35.588Z,21.38
2023-08-09T04:56:03.923Z,20.05
2023-08-09T04:58:31.696Z,19.10
2023-08-09T05:00:59.563Z,17.10
2023-08-09T05:03:27.170Z,17.00
2023-08-09T05:05:54.676Z,16.05
2023-08-09T05:08:22.163Z,13.10
2023-08-09T05:10:51.531Z,49.05
2023-08-09T05:13:19.465Z,13.77
2023-08-09T05:15:46.994Z,16.58
2023-08-09T05:18:14.548Z,15.50
2023-08-09T05:20:42.207Z,13.45
2023-08-09T05:23:11.411Z,27.80
2023-08-09T05:25:40.133Z,24.50
2023-08-09T05:28:09.122Z,16.73
2023-08-09T05:30:36.810Z,20.13
2023-08-09T05:33:05.415Z,23.92
2023-08-09T05:35:33.151Z,16.73
2023-08-09T05:38:00.657Z,19.13
2023-08-09T05:40:28.206Z,17.65
2023-08-09T05:42:55.816Z,15.85
2023-08-09T05:45:25.066Z,18.95
2023-08-09T05:47:52.602Z,21.15
2023-08-09T05:50:20.292Z,16.63
2023-08-09T05:52:47.779Z,20.70
2023-08-09T05:55:15.326Z,12.80
2023-08-09T05:57:42.843Z,18.05
2023-08-09T06:00:11.128Z,14.75
2023-08-09T06:02:40.406Z,18.92
2023-08-09T06:05:09.004Z,19.27
2023-08-09T06:07:36.504Z,12.20
2023-08-09T06:10:04.782Z,17.80
2023-08-09T06:12:32.249Z,16.08
2023-08-09T06:14:59.885Z,23.63
2023-08-09T06:17:27.469Z,24.77
2023-08-09T06:19:56.590Z,22.85
2023-08-09T06:22:24.274Z,26.98
2023-08-09T06:24:52.368Z,23.10
2023-08-09T06:27:20.001Z,17.02
2023-08-09T06:29:47.508Z,18.17
2023-08-09T06:32:15.035Z,20.08
2023-08-09T06:34:42.551Z,15.98
2023-08-09T06:37:11.521Z,14.57
2023-08-09T06:39:39.051Z,16.20
2023-08-09T06:42:07.012Z,15.82
2023-08-09T06:44:36.264Z,20.38
2023-08-09T06:47:04.158Z,24.75
2023-08-09T06:49:31.946Z,21.27
2023-08-09T06:51:59.439Z,16.80
2023-08-09T06:54:29.084Z,17.70
2023-08-09T06:56:56.858Z,17.90
2023-08-09T06:59:24.452Z,22.25
2023-08-09T07:01:52.035Z,19.85
2023-08-09T07:04:20.071Z,17.50
2023-08-09T07:06:47.804Z,17.60
2023-08-09T07:09:15.953Z,18.23
2023-08-09T07:11:45.732Z,12.68
2023-08-09T07:14:13.385Z,34.10
2023-08-09T07:16:42.469Z,25.40
2023-08-09T07:19:10.032Z,13.18
2023-08-09T07:21:37.531Z,16.27
2023-08-09T07:24:05.656Z,16.92
2023-08-09T07:26:33.403Z,12.95
2023-08-09T07:29:02.690Z,11.77
2023-08-09T07:31:30.398Z,12.75
2023-08-09T07:33:57.942Z,17.50
2023-08-09T07:36:27.829Z,13.02
2023-08-09T07:38:55.802Z,22.08
2023-08-09T07:41:23.295Z,20.13
2023-08-09T07:43:50.913Z,20.58
2023-08-09T07:46:20.102Z,15.43
2023-08-09T07:48:47.723Z,15.77
2023-08-09T07:51:15.767Z,17.88
2023-08-09T07:53:46.238Z,15.82
2023-08-09T07:56:14.272Z,14.55
2023-08-09T07:58:41.811Z,11.77
2023-08-09T08:01:09.383Z,15.57
2023-08-09T08:03:38.536Z,12.85
2023-08-09T08:06:06.184Z,13.73
2023-08-09T08:08:33.868Z,11.98
2023-08-09T08:11:01.374Z,12.73
2023-08-09T08:13:28.954Z,11.65
2023-08-09T08:15:56.502Z,13.98
2023-08-09T08:18:24.214Z,14.43
2023-08-09T08:20:53.336Z,13.05
2023-08-09T08:23:20.884Z,13.57
2023-08-09T08:25:48.455Z,15.40
2023-08-09T08:28:15.954Z,13.80
2023-08-09T08:30:43.797Z,14.00
2023-08-09T08:33:11.371Z,14.70
2023-08-09T08:35:39.078Z,11.93
2023-08-09T08:38:08.062Z,15.50
2023-08-09T08:40:35.857Z,15.13
2023-08-09T08:43:03.734Z,12.70
2023-08-09T08:45:31.353Z,13.43
2023-08-09T08:47:59.423Z,14.77
2023-08-09T08:50:27.881Z,12.27
2023-08-09T08:52:56.499Z,14.90
2023-08-09T08:55:25.827Z,12.95
2023-08-09T08:57:53.662Z,13.32
2023-08-09T09:00:27.565Z,15.75
2023-08-09T09:02:57.130Z,15.38
2023-08-09T09:05:25.096Z,20.55
2023-08-09T09:07:53.244Z,13.95
2023-08-09T09:10:22.451Z,13.63
2023-08-09T09:12:52.638Z,15.85
2023-08-09T09:15:20.397Z,14.38
2023-08-09T09:17:48.325Z,16.35
2023-08-09T09:20:17.553Z,35.10
2023-08-09T09:22:45.041Z,19.52
2023-08-09T09:25:16.640Z,32.45
2023-08-09T09:27:44.419Z,18.15
2023-08-09T09:30:13.609Z,16.55
2023-08-09T09:32:54.723Z,16.88
2023-08-09T09:35:23.620Z,16.15
2023-08-09T09:37:52.185Z,15.05
2023-08-09T09:40:23.086Z,12.73
2023-08-09T09:42:52.728Z,18.45
2023-08-09T09:47:51.893Z,15.05
2023-08-09T09:50:22.821Z,14.57
2023-08-09T09:52:51.083Z,12.48
2023-08-09T09:55:19.422Z,14.35
2023-08-09T09:57:47.092Z,13.38
2023-08-09T10:00:15.272Z,14.20
2023-08-09T10:02:46.763Z,15.52
2023-08-09T10:05:17.023Z,17.88
2023-08-09T10:07:44.959Z,15.43
2023-08-09T10:10:14.613Z,13.38
2023-08-09T10:12:45.124Z,12.10
2023-08-09T10:15:14.849Z,13.90
2023-08-09T10:17:47.006Z,13.30
2023-08-09T10:20:16.706Z,11.95
2023-08-09T10:22:46.736Z,13.05
2023-08-09T10:25:14.462Z,14.48
2023-08-09T10:27:52.767Z,13.05
2023-08-09T10:30:25.574Z,11.90
2023-08-09T10:32:55.779Z,10.80
2023-08-09T10:35:47.850Z,12.07
2023-08-09T10:38:18.567Z,11.48
2023-08-09T10:40:51.624Z,13.77
2023-08-09T10:43:20.305Z,9.65
2023-08-09T10:45:49.001Z,10.93
2023-08-09T10:48:25.644Z,10.83
2023-08-09T10:51:19.761Z,11.43
2023-08-09T10:53:57.282Z,13.85
2023-08-09T10:56:33.093Z,10.18
2023-08-09T10:59:07.709Z,14.00
2023-08-09T11:01:35.720Z,11.23
2023-08-09T11:04:08.364Z,14.43
2023-08-09T11:06:39.432Z,12.52
2023-08-09T11:09:09.650Z,11.63
2023-08-09T11:11:38.104Z,10.60
2023-08-09T11:14:06.553Z,10.45
2023-08-09T11:16:34.357Z,14.77
2023-08-09T11:19:09.231Z,14.68
2023-08-09T11:21:42.585Z,13.77
2023-08-09T11:26:39.719Z,10.75
2023-08-09T11:29:07.862Z,10.52
2023-08-09T11:31:39.775Z,10.55
2023-08-09T11:34:08.746Z,10.50
2023-08-09T11:36:36.314Z,10.75
2023-08-09T11:39:05.209Z,12.80
2023-08-09T11:41:42.571Z,12.52
2023-08-09T11:44:10.673Z,10.05
2023-08-09T11:46:38.282Z,10.70
2023-08-09T11:49:06.380Z,11.88
2023-08-09T11:51:37.819Z,12.60
2023-08-09T11:54:09.866Z,11.68
2023-08-09T11:56:38.471Z,12.20
2023-08-09T11:59:08.497Z,15.02
2023-08-09T12:01:38.616Z,15.85
2023-08-09T12:04:08.654Z,12.27
2023-08-09T12:06:39.885Z,15.00
2023-08-09T12:09:29.916Z,11.68
2023-08-09T12:12:03.290Z,10.23
2023-08-09T12:14:31.120Z,11.02
2023-08-09T12:16:58.744Z,10.90
2023-08-09T12:19:27.199Z,10.48
2023-08-09T12:21:56.944Z,10.90
2023-08-09T12:26:51.793Z,9.48
2023-08-09T12:29:19.507Z,8.68
2023-08-09T12:31:47.174Z,10.43
2023-08-09T12:34:14.741Z,10.02
2023-08-09T12:36:42.755Z,8.93
2023-08-09T12:39:12.320Z,10.98
2023-08-09T12:44:07.893Z,9.13
2023-08-09T12:46:36.262Z,9.05
2023-08-09T12:49:05.131Z,9.93
2023-08-09T12:51:33.161Z,10.13
2023-08-09T12:54:00.906Z,12.95
2023-08-09T12:59:02.443Z,8.82
2023-08-09T13:01:30.051Z,9.07
2023-08-09T13:03:57.726Z,8.15
2023-08-09T13:06:25.572Z,10.07
2023-08-09T13:08:53.216Z,8.25
2023-08-09T13:11:21.026Z,8.48
2023-08-09T13:13:50.345Z,9.48
2023-08-09T13:16:17.924Z,9.70
2023-08-09T13:18:45.509Z,8.70
2023-08-09T13:21:14.926Z,7.35
2023-08-09T13:23:43.967Z,6.82
2023-08-09T13:26:11.772Z,8.23
2023-08-09T13:28:39.508Z,9.15
2023-08-09T13:31:09.817Z,9.57
2023-08-09T13:33:38.132Z,8.85
2023-08-09T13:36:06.220Z,8.98
2023-08-09T13:38:35.200Z,8.65
2023-08-09T13:41:02.808Z,7.45
2023-08-09T13:43:31.095Z,7.47
2023-08-09T13:45:59.967Z,7.60
2023-08-09T13:48:29.364Z,7.15
2023-08-09T13:50:56.924Z,8.13
2023-08-09T13:53:24.661Z,10.65
2023-08-09T13:55:52.571Z,8.85
2023-08-09T13:58:20.339Z,8.45
2023-08-09T14:00:50.400Z,7.38
2023-08-09T14:03:18.510Z,8.98
2023-08-09T14:05:47.855Z,7.43
2023-08-09T14:08:15.388Z,10.63
2023-08-09T14:10:43.001Z,7.75
2023-08-09T14:13:10.738Z,7.70
2023-08-09T14:15:38.351Z,7.70
2023-08-09T14:18:08.660Z,9.27
2023-08-09T14:20:36.974Z,7.90
2023-08-09T14:23:06.926Z,8.48
2023-08-09T14:25:34.527Z,9.70
2023-08-09T14:28:02.172Z,8.68
2023-08-09T14:30:29.922Z,8.20
2023-08-09T14:32:57.537Z,8.20
2023-08-09T14:35:25.206Z,8.88
2023-08-09T14:37:52.934Z,7.68
2023-08-09T14:40:22.154Z,11.40
2023-08-09T14:42:49.673Z,9.35
2023-08-09T14:45:17.217Z,7.97
2023-08-09T14:47:44.880Z,8.82
2023-08-09T14:50:12.424Z,8.95
2023-08-09T14:52:39.913Z,9.75
2023-08-09T14:55:08.631Z,6.80
2023-08-09T14:57:37.644Z,8.70
2023-08-09T15:00:06.237Z,8.05
2023-08-09T15:02:33.855Z,9.37
2023-08-09T15:05:01.586Z,8.35
2023-08-09T15:07:29.214Z,11.50
2023-08-09T15:09:56.798Z,10.82
2023-08-09T15:12:24.388Z,11.52
2023-08-09T15:14:53.505Z,10.80
2023-08-09T15:17:25.401Z,9.65
2023-08-09T15:19:54.223Z,9.65
2023-08-09T15:22:23.319Z,12.10
2023-08-09T15:24:51.296Z,9.57
2023-08-09T15:27:18.886Z,10.57
2023-08-09T15:29:46.388Z,10.70
2023-08-09T15:32:15.349Z,10.50
2023-08-09T15:34:42.937Z,10.07
2023-08-09T15:37:10.455Z,11.25
2023-08-09T15:39:38.000Z,11.73
2023-08-09T15:42:17.121Z,12.20
2023-08-09T15:44:46.557Z,11.20
2023-08-09T15:47:15.705Z,12.70
2023-08-09T15:49:43.332Z,11.50
2023-08-09T15:52:10.824Z,9.75
2023-08-09T15:54:38.444Z,12.45
2023-08-09T15:57:06.487Z,12.77
2023-08-09T15:59:34.323Z,13.80
2023-08-09T16:02:01.985Z,10.55
2023-08-09T16:04:31.139Z,10.85
2023-08-09T16:06:58.768Z,12.75
2023-08-09T16:09:26.252Z,12.30
2023-08-09T16:11:54.107Z,13.05
2023-08-09T16:14:21.651Z,12.80
2023-08-09T16:16:49.351Z,13.88
2023-08-09T16:19:19.926Z,18.23
2023-08-09T16:21:49.150Z,12.98
2023-08-09T16:24:16.815Z,15.70
2023-08-09T16:26:44.361Z,13.02
2023-08-09T16:29:11.897Z,13.23
2023-08-09T16:31:39.492Z,14.52
2023-08-09T16:34:07.126Z,15.15
2023-08-09T16:36:34.910Z,13.35
2023-08-09T16:39:04.462Z,13.82
2023-08-09T16:43:59.076Z,16.67
2023-08-09T16:46:26.805Z,13.85
2023-08-09T16:48:54.887Z,16.33
2023-08-09T16:51:22.434Z,14.43
2023-08-09T16:53:49.960Z,15.07
2023-08-09T16:56:18.900Z,16.33
2023-08-09T16:58:46.441Z,14.60
2023-08-09T17:01:14.321Z,19.20
2023-08-09T17:03:41.945Z,14.68
2023-08-09T17:06:09.562Z,14.35
2023-08-09T17:08:37.098Z,17.08
2023-08-09T17:11:04.655Z,18.63
2023-08-09T17:13:34.331Z,17.55
2023-08-09T17:18:29.252Z,16.55
2023-08-09T17:20:56.804Z,14.80
2023-08-09T17:23:24.431Z,18.13
2023-08-09T17:25:52.504Z,14.05
2023-08-09T17:28:20.056Z,17.75
2023-08-09T17:30:49.619Z,17.77
2023-08-09T17:33:17.429Z,18.30
2023-08-09T17:35:45.409Z,18.00
2023-08-09T17:38:13.757Z,18.70
2023-08-09T17:40:41.366Z,19.08
2023-08-09T17:43:08.853Z,19.30
2023-08-09T17:45:38.372Z,15.85
2023-08-09T17:50:35.245Z,21.10
2023-08-09T17:53:02.936Z,23.98
2023-08-09T17:55:30.654Z,17.52
2023-08-09T17:57:58.204Z,17.15
2023-08-09T18:00:25.981Z,17.17
2023-08-09T18:02:54.525Z,19.65
2023-08-09T18:05:23.766Z,15.25
2023-08-09T18:07:51.421Z,16.17
2023-08-09T18:10:19.180Z,16.92
2023-08-09T18:12:46.813Z,15.82
2023-08-09T18:15:14.435Z,15.27
2023-08-09T18:17:41.959Z,14.65
2023-08-09T18:20:10.049Z,16.27
2023-08-09T18:22:39.482Z,16.00
2023-08-09T18:25:07.533Z,13.32
2023-08-09T18:27:35.358Z,15.90
2023-08-09T18:30:04.097Z,14.25
2023-08-09T18:32:31.684Z,13.13
2023-08-09T18:35:14.999Z,15.38
2023-08-09T18:37:44.406Z,15.02
2023-08-09T18:40:12.603Z,21.30
2023-08-09T18:42:40.125Z,20.15
2023-08-09T18:45:09.262Z,20.85
2023-08-09T18:47:36.838Z,12.88
2023-08-09T18:50:04.555Z,12.63
2023-08-09T18:52:32.277Z,13.70
2023-08-09T18:55:01.263Z,13.35
2023-08-09T18:57:28.787Z,12.52
2023-08-09T18:59:56.319Z,13.98
2023-08-09T19:02:23.834Z,13.05
2023-08-09T19:04:51.509Z,14.18
2023-08-09T19:07:19.036Z,18.90
2023-08-09T19:09:46.973Z,16.00
2023-08-09T19:12:15.964Z,15.68
2023-08-09T19:14:43.466Z,14.60
2023-08-09T19:17:11.246Z,12.68
2023-08-09T19:19:38.744Z,15.90
2023-08-09T19:22:06.425Z,13.00
2023-08-09T19:24:34.023Z,15.23
2023-08-09T19:27:01.796Z,13.50
2023-08-09T19:29:31.026Z,12.70
2023-08-09T19:31:58.829Z,12.20
2023-08-09T19:34:26.352Z,13.73
2023-08-09T19:36:53.829Z,15.25
2023-08-09T19:39:21.375Z,12.63
2023-08-09T19:41:48.956Z,15.00
2023-08-09T19:44:16.557Z,12.63
2023-08-09T19:46:45.676Z,14.88
2023-08-09T19:49:13.198Z,12.25
2023-08-09T19:51:40.745Z,13.48
2023-08-09T19:54:08.273Z,12.30
2023-08-09T19:56:35.795Z,16.17
2023-08-09T19:59:03.494Z,12.02
2023-08-09T20:01:31.152Z,12.85
2023-08-09T20:04:00.114Z,14.10
2023-08-09T20:06:27.608Z,13.93
2023-08-09T20:08:55.265Z,15.95
2023-08-09T20:11:22.806Z,14.02
2023-08-09T20:13:50.267Z,13.02
2023-08-09T20:16:17.823Z,13.88
2023-08-09T20:18:45.384Z,17.48
2023-08-09T20:21:14.388Z,16.58
2023-08-09T20:23:42.062Z,22.88
2023-08-09T20:26:09.692Z,17.13
2023-08-09T20:28:37.282Z,18.33
2023-08-09T20:31:04.857Z,19.67
2023-08-09T20:33:32.416Z,18.67
2023-08-09T20:36:00.154Z,19.42
2023-08-09T20:38:29.139Z,27.40
2023-08-09T20:40:59.224Z,22.65
2023-08-09T20:43:27.439Z,23.95
2023-08-09T20:45:54.999Z,18.23
2023-08-09T20:48:22.685Z,19.27
2023-08-09T20:50:50.296Z,21.63
2023-08-09T20:53:17.977Z,20.35
2023-08-09T20:55:47.115Z,21.10
2023-08-09T20:58:14.648Z,28.40
2023-08-09T21:00:42.512Z,24.30
2023-08-09T21:03:10.115Z,25.45
2023-08-09T21:05:37.858Z,23.58
2023-08-09T21:08:06.166Z,23.35
2023-08-09T21:10:33.688Z,24.83
2023-08-09T21:13:02.627Z,20.77
2023-08-09T21:15:30.131Z,23.98
2023-08-09T21:17:57.656Z,25.73
2023-08-09T21:20:25.500Z,18.95
2023-08-09T21:27:54.683Z,25.48
2023-08-09T21:30:23.652Z,20.65
2023-08-09T21:32:51.223Z,20.75
2023-08-09T21:35:18.729Z,19.90
2023-08-09T21:37:46.256Z,22.52
2023-08-09T21:40:14.010Z,20.10
2023-08-09T21:42:41.526Z,20.20
2023-08-09T21:45:10.398Z,16.10
2023-08-09T21:47:39.816Z,19.27
2023-08-09T21:52:34.969Z,26.27
2023-08-09T21:55:02.476Z,18.27
2023-08-09T21:57:29.951Z,24.80
2023-08-09T21:59:57.465Z,24.15
2023-08-09T22:02:25.324Z,22.63
2023-08-09T22:04:54.346Z,17.05
2023-08-09T22:07:21.931Z,24.23
2023-08-09T22:09:49.412Z,15.90
2023-08-09T22:12:17.080Z,18.00
2023-08-09T22:14:44.589Z,17.85
2023-08-09T22:17:12.083Z,21.13
2023-08-09T22:19:40.256Z,18.13
2023-08-09T22:22:14.157Z,17.83
2023-08-09T22:24:42.892Z,17.10
2023-08-09T22:27:10.390Z,17.60
2023-08-09T22:29:38.531Z,14.65
2023-08-09T22:32:06.773Z,19.40
2023-08-09T22:34:34.476Z,18.42
2023-08-09T22:37:01.981Z,17.75
2023-08-09T22:39:30.960Z,15.13
2023-08-09T22:41:58.459Z,15.45
2023-08-09T22:44:26.481Z,17.15
2023-08-09T22:46:54.011Z,16.50
2023-08-09T22:49:22.086Z,14.93
2023-08-09T22:51:49.746Z,20.48
2023-08-09T22:54:17.260Z,17.00
2023-08-09T22:56:46.292Z,16.05
2023-08-09T22:59:13.934Z,16.60
2023-08-09T23:01:41.542Z,18.45
2023-08-09T23:04:09.352Z,17.52
2023-08-09T23:06:37.791Z,15.32
2023-08-09T23:09:07.474Z,18.70
2023-08-09T23:11:35.193Z,18.40
2023-08-09T23:14:04.582Z,19.15
2023-08-09T23:16:32.480Z,16.85
2023-08-09T23:19:00.026Z,18.95
2023-08-09T23:21:27.812Z,17.17
2023-08-09T23:23:55.326Z,17.73
2023-08-09T23:26:22.840Z,17.23
2023-08-09T23:28:50.428Z,16.20
2023-08-09T23:31:19.566Z,15.13
2023-08-09T23:33:47.097Z,17.10
2023-08-09T23:36:15.065Z,16.83
2023-08-09T23:38:43.543Z,16.30
2023-08-09T23:41:11.061Z,14.18
2023-08-09T23:43:38.661Z,14.88
2023-08-09T23:46:06.364Z,13.35
2023-08-09T23:48:35.313Z,15.65
2023-08-09T23:51:02.793Z,16.45
2023-08-09T23:53:30.284Z,14.20
2023-08-09T23:55:57.842Z,17.75
2023-08-09T23:58:25.330Z,16.63
